sensor_id;sensor_type;location;lat;lon;timestamp;P1;P2;P0
70243;PMS7003;57634;51.136;17.024;2023-02-02T00:02:44;2;1;0
70243;PMS7003;57634;51.136;17.024;2023-02-02T00:05:49;2;2;1
70243;PMS7003;57634;51.136;17.024;2023-02-02T00:08:52;1;0;0
70243;PMS7003;57634;51.136;17.024;2023-02-02T00:11:57;2;0;0
70243;PMS7003;57634;51.136;17.024;2023-02-02T00:15:00;2;2;1
70243;PMS7003;57634;51.136;17.024;2023-02-02T00:18:01;1;1;0
70243;PMS7003;57634;51.136;17.024;2023-02-02T00:21:29;0;0;0
70243;PMS7003;57634;51.136;17.024;2023-02-02T00:24:30;0;0;0
70243;PMS7003;57634;51.136;17.024;2023-02-02T00:27:31;0;0;0
70243;PMS7003;57634;51.136;17.024;2023-02-02T00:30:33;1;0;0
70243;PMS7003;57634;51.136;17.024;2023-02-02T00:33:34;0;0;0
70243;PMS7003;57634;51.136;17.024;2023-02-02T00:36:36;0;0;0
70243;PMS7003;57634;51.136;17.024;2023-02-02T00:39:37;0;0;0
70243;PMS7003;57634;51.136;17.024;2023-02-02T00:42:39;0;0;0
70243;PMS7003;57634;51.136;17.024;2023-02-02T00:45:40;0;0;0
70243;PMS7003;57634;51.136;17.024;2023-02-02T00:48:42;0;0;0
70243;PMS7003;57634;51.136;17.024;2023-02-02T00:51:43;2;1;0
70243;PMS7003;57634;51.136;17.024;2023-02-02T00:54:44;0;0;0
70243;PMS7003;57634;51.136;17.024;2023-02-02T00:57:45;0;0;0
70243;PMS7003;57634;51.136;17.024;2023-02-02T01:00:46;1;0;0
70243;PMS7003;57634;51.136;17.024;2023-02-02T01:03:48;0;0;0
70243;PMS7003;57634;51.136;17.024;2023-02-02T01:07:15;0;0;0
70243;PMS7003;57634;51.136;17.024;2023-02-02T01:10:17;0;0;0
70243;PMS7003;57634;51.136;17.024;2023-02-02T01:13:19;0;0;0
70243;PMS7003;57634;51.136;17.024;2023-02-02T01:16:20;0;0;0
70243;PMS7003;57634;51.136;17.024;2023-02-02T01:19:22;0;0;0
70243;PMS7003;57634;51.136;17.024;2023-02-02T01:22:23;1;0;0
70243;PMS7003;57634;51.136;17.024;2023-02-02T01:25:24;2;1;0
70243;PMS7003;57634;51.136;17.024;2023-02-02T01:28:27;1;0;0
70243;PMS7003;57634;51.136;17.024;2023-02-02T01:31:29;1;1;0
70243;PMS7003;57634;51.136;17.024;2023-02-02T01:34:31;0;0;0
70243;PMS7003;57634;51.136;17.024;2023-02-02T01:37:32;0;0;0
70243;PMS7003;57634;51.136;17.024;2023-02-02T01:40:34;0;0;0
70243;PMS7003;57634;51.136;17.024;2023-02-02T01:47:15;0;0;0
70243;PMS7003;57634;51.136;17.024;2023-02-02T01:50:17;0;0;0
70243;PMS7003;57634;51.136;17.024;2023-02-02T01:53:21;0;0;0
70243;PMS7003;57634;51.136;17.024;2023-02-02T01:56:25;0;0;0
70243;PMS7003;57634;51.136;17.024;2023-02-02T01:59:33;1;0;0
70243;PMS7003;57634;51.136;17.024;2023-02-02T02:02:35;0;0;0
70243;PMS7003;57634;51.136;17.024;2023-02-02T02:05:48;0;0;0
70243;PMS7003;57634;51.136;17.024;2023-02-02T02:12:26;0;0;0
70243;PMS7003;57634;51.136;17.024;2023-02-02T02:15:27;0;0;0
70243;PMS7003;57634;51.136;17.024;2023-02-02T02:22:05;0;0;0
70243;PMS7003;57634;51.136;17.024;2023-02-02T02:36:17;0;0;0
70243;PMS7003;57634;51.136;17.024;2023-02-02T02:45:47;0;0;0
70243;PMS7003;57634;51.136;17.024;2023-02-02T02:48:50;0;0;0
70243;PMS7003;57634;51.136;17.024;2023-02-02T02:51:52;0;0;0
70243;PMS7003;57634;51.136;17.024;2023-02-02T02:55:23;0;0;0
70243;PMS7003;57634;51.136;17.024;2023-02-02T03:01:44;0;0;0
70243;PMS7003;57634;51.136;17.024;2023-02-02T03:04:59;0;0;0
70243;PMS7003;57634;51.136;17.024;2023-02-02T03:08:10;0;0;0
70243;PMS7003;57634;51.136;17.024;2023-02-02T03:11:47;0;0;0
70243;PMS7003;57634;51.136;17.024;2023-02-02T03:14:48;0;0;0
70243;PMS7003;57634;51.136;17.024;2023-02-02T03:17:49;0;0;0
70243;PMS7003;57634;51.136;17.024;2023-02-02T03:20:53;0;0;0
70243;PMS7003;57634;51.136;17.024;2023-02-02T03:23:54;0;0;0
70243;PMS7003;57634;51.136;17.024;2023-02-02T03:26:55;1;0;0
70243;PMS7003;57634;51.136;17.024;2023-02-02T03:29:57;1;0;0
70243;PMS7003;57634;51.136;17.024;2023-02-02T03:32:59;1;0;0
70243;PMS7003;57634;51.136;17.024;2023-02-02T03:36:01;0;0;0
70243;PMS7003;57634;51.136;17.024;2023-02-02T03:39:02;0;0;0
70243;PMS7003;57634;51.136;17.024;2023-02-02T03:42:04;0;0;0
70243;PMS7003;57634;51.136;17.024;2023-02-02T03:45:06;1;0;0
70243;PMS7003;57634;51.136;17.024;2023-02-02T03:48:08;0;0;0
70243;PMS7003;57634;51.136;17.024;2023-02-02T03:51:10;0;0;0
70243;PMS7003;57634;51.136;17.024;2023-02-02T03:54:38;0;0;0
70243;PMS7003;57634;51.136;17.024;2023-02-02T03:57:39;1;0;0
70243;PMS7003;57634;51.136;17.024;2023-02-02T04:00:41;1;0;0
70243;PMS7003;57634;51.136;17.024;2023-02-02T04:03:43;0;0;0
70243;PMS7003;57634;51.136;17.024;2023-02-02T04:06:46;0;0;0
70243;PMS7003;57634;51.136;17.024;2023-02-02T04:09:47;0;0;0
70243;PMS7003;57634;51.136;17.024;2023-02-02T04:12:49;0;0;0
70243;PMS7003;57634;51.136;17.024;2023-02-02T04:16:00;0;0;0
70243;PMS7003;57634;51.136;17.024;2023-02-02T04:19:00;0;0;0
70243;PMS7003;57634;51.136;17.024;2023-02-02T04:22:01;0;0;0
70243;PMS7003;57634;51.136;17.024;2023-02-02T04:25:03;0;0;0
70243;PMS7003;57634;51.136;17.024;2023-02-02T04:28:04;0;0;0
70243;PMS7003;57634;51.136;17.024;2023-02-02T04:31:33;0;0;0
70243;PMS7003;57634;51.136;17.024;2023-02-02T04:34:35;0;0;0
70243;PMS7003;57634;51.136;17.024;2023-02-02T04:37:36;0;0;0
70243;PMS7003;57634;51.136;17.024;2023-02-02T04:40:38;0;0;0
70243;PMS7003;57634;51.136;17.024;2023-02-02T04:43:39;0;0;0
70243;PMS7003;57634;51.136;17.024;2023-02-02T04:46:44;0;0;0
70243;PMS7003;57634;51.136;17.024;2023-02-02T04:49:45;0;0;0
70243;PMS7003;57634;51.136;17.024;2023-02-02T04:52:47;0;0;0
70243;PMS7003;57634;51.136;17.024;2023-02-02T04:55:48;0;0;0
70243;PMS7003;57634;51.136;17.024;2023-02-02T04:58:52;0;0;0
70243;PMS7003;57634;51.136;17.024;2023-02-02T05:01:55;1;0;0
70243;PMS7003;57634;51.136;17.024;2023-02-02T05:04:59;0;0;0
70243;PMS7003;57634;51.136;17.024;2023-02-02T05:08:28;0;0;0
70243;PMS7003;57634;51.136;17.024;2023-02-02T05:11:29;0;0;0
70243;PMS7003;57634;51.136;17.024;2023-02-02T05:14:31;0;0;0
70243;PMS7003;57634;51.136;17.024;2023-02-02T05:17:32;0;0;0
70243;PMS7003;57634;51.136;17.024;2023-02-02T05:20:33;0;0;0
70243;PMS7003;57634;51.136;17.024;2023-02-02T05:23:34;0;0;0
70243;PMS7003;57634;51.136;17.024;2023-02-02T05:26:35;2;0;0
70243;PMS7003;57634;51.136;17.024;2023-02-02T05:29:37;0;0;0
70243;PMS7003;57634;51.136;17.024;2023-02-02T05:32:38;0;0;0
70243;PMS7003;57634;51.136;17.024;2023-02-02T05:35:39;0;0;0
70243;PMS7003;57634;51.136;17.024;2023-02-02T05:38:40;1;0;0
70243;PMS7003;57634;51.136;17.024;2023-02-02T05:41:42;1;0;0
70243;PMS7003;57634;51.136;17.024;2023-02-02T05:44:43;0;0;0
70243;PMS7003;57634;51.136;17.024;2023-02-02T05:47:45;0;0;0
70243;PMS7003;57634;51.136;17.024;2023-02-02T05:51:33;0;0;0
70243;PMS7003;57634;51.136;17.024;2023-02-02T05:54:26;0;0;0
70243;PMS7003;57634;51.136;17.024;2023-02-02T05:57:27;1;1;0
70243;PMS7003;57634;51.136;17.024;2023-02-02T06:00:28;0;0;0
70243;PMS7003;57634;51.136;17.024;2023-02-02T06:03:29;0;0;0
70243;PMS7003;57634;51.136;17.024;2023-02-02T06:06:30;0;0;0
70243;PMS7003;57634;51.136;17.024;2023-02-02T06:09:32;0;0;0
70243;PMS7003;57634;51.136;17.024;2023-02-02T06:12:33;0;0;0
70243;PMS7003;57634;51.136;17.024;2023-02-02T06:15:35;0;0;0
70243;PMS7003;57634;51.136;17.024;2023-02-02T06:18:36;0;0;0
70243;PMS7003;57634;51.136;17.024;2023-02-02T06:21:38;0;0;0
70243;PMS7003;57634;51.136;17.024;2023-02-02T06:24:39;0;0;0
70243;PMS7003;57634;51.136;17.024;2023-02-02T06:27:41;0;0;0
70243;PMS7003;57634;51.136;17.024;2023-02-02T06:30:46;0;0;0
70243;PMS7003;57634;51.136;17.024;2023-02-02T06:33:51;0;0;0
70243;PMS7003;57634;51.136;17.024;2023-02-02T06:37:19;0;0;0
70243;PMS7003;57634;51.136;17.024;2023-02-02T06:40:21;0;0;0
70243;PMS7003;57634;51.136;17.024;2023-02-02T06:43:22;0;0;0
70243;PMS7003;57634;51.136;17.024;2023-02-02T06:46:24;0;0;0
70243;PMS7003;57634;51.136;17.024;2023-02-02T06:49:25;0;0;0
70243;PMS7003;57634;51.136;17.024;2023-02-02T06:52:27;0;0;0
70243;PMS7003;57634;51.136;17.024;2023-02-02T06:55:28;0;0;0
70243;PMS7003;57634;51.136;17.024;2023-02-02T06:58:30;1;0;0
70243;PMS7003;57634;51.136;17.024;2023-02-02T07:01:33;0;0;0
70243;PMS7003;57634;51.136;17.024;2023-02-02T07:04:34;0;0;0
70243;PMS7003;57634;51.136;17.024;2023-02-02T07:07:35;0;0;0
70243;PMS7003;57634;51.136;17.024;2023-02-02T07:10:38;0;0;0
70243;PMS7003;57634;51.136;17.024;2023-02-02T07:13:39;1;0;0
70243;PMS7003;57634;51.136;17.024;2023-02-02T07:16:41;0;0;0
70243;PMS7003;57634;51.136;17.024;2023-02-02T07:20:09;0;0;0
70243;PMS7003;57634;51.136;17.024;2023-02-02T07:23:11;0;0;0
70243;PMS7003;57634;51.136;17.024;2023-02-02T07:26:12;0;0;0
70243;PMS7003;57634;51.136;17.024;2023-02-02T07:29:15;1;1;0
70243;PMS7003;57634;51.136;17.024;2023-02-02T07:32:16;0;0;0
70243;PMS7003;57634;51.136;17.024;2023-02-02T07:35:18;0;0;0
70243;PMS7003;57634;51.136;17.024;2023-02-02T07:38:19;0;0;0
70243;PMS7003;57634;51.136;17.024;2023-02-02T07:41:21;0;0;0
70243;PMS7003;57634;51.136;17.024;2023-02-02T07:44:23;0;0;0
70243;PMS7003;57634;51.136;17.024;2023-02-02T07:47:25;0;0;0
70243;PMS7003;57634;51.136;17.024;2023-02-02T07:50:27;0;0;0
70243;PMS7003;57634;51.136;17.024;2023-02-02T07:53:30;0;0;0
70243;PMS7003;57634;51.136;17.024;2023-02-02T07:56:33;0;0;0
70243;PMS7003;57634;51.136;17.024;2023-02-02T08:00:00;0;0;0
70243;PMS7003;57634;51.136;17.024;2023-02-02T08:03:01;0;0;0
70243;PMS7003;57634;51.136;17.024;2023-02-02T08:09:12;0;0;0
70243;PMS7003;57634;51.136;17.024;2023-02-02T08:12:14;0;0;0
70243;PMS7003;57634;51.136;17.024;2023-02-02T08:15:16;0;0;0
70243;PMS7003;57634;51.136;17.024;2023-02-02T08:18:17;0;0;0
70243;PMS7003;57634;51.136;17.024;2023-02-02T08:21:18;0;0;0
70243;PMS7003;57634;51.136;17.024;2023-02-02T08:24:20;0;0;0
70243;PMS7003;57634;51.136;17.024;2023-02-02T08:27:21;0;0;0
70243;PMS7003;57634;51.136;17.024;2023-02-02T08:30:23;0;0;0
70243;PMS7003;57634;51.136;17.024;2023-02-02T08:33:24;0;0;0
70243;PMS7003;57634;51.136;17.024;2023-02-02T08:36:53;0;0;0
70243;PMS7003;57634;51.136;17.024;2023-02-02T08:39:55;0;0;0
70243;PMS7003;57634;51.136;17.024;2023-02-02T08:42:56;0;0;0
70243;PMS7003;57634;51.136;17.024;2023-02-02T08:45:59;0;0;0
70243;PMS7003;57634;51.136;17.024;2023-02-02T08:49:01;0;0;0
70243;PMS7003;57634;51.136;17.024;2023-02-02T08:52:03;0;0;0
70243;PMS7003;57634;51.136;17.024;2023-02-02T08:55:05;0;0;0
70243;PMS7003;57634;51.136;17.024;2023-02-02T08:58:06;0;0;0
70243;PMS7003;57634;51.136;17.024;2023-02-02T09:01:13;0;0;0
70243;PMS7003;57634;51.136;17.024;2023-02-02T09:04:21;0;0;0
70243;PMS7003;57634;51.136;17.024;2023-02-02T09:07:23;0;0;0
70243;PMS7003;57634;51.136;17.024;2023-02-02T09:10:54;0;0;0
70243;PMS7003;57634;51.136;17.024;2023-02-02T09:13:57;0;0;0
70243;PMS7003;57634;51.136;17.024;2023-02-02T09:17:02;0;0;0
70243;PMS7003;57634;51.136;17.024;2023-02-02T09:20:03;0;0;0
70243;PMS7003;57634;51.136;17.024;2023-02-02T09:23:06;0;0;0
70243;PMS7003;57634;51.136;17.024;2023-02-02T09:29:21;0;0;0
70243;PMS7003;57634;51.136;17.024;2023-02-02T09:32:22;0;0;0
70243;PMS7003;57634;51.136;17.024;2023-02-02T09:35:23;0;0;0
70243;PMS7003;57634;51.136;17.024;2023-02-02T09:38:25;0;0;0
70243;PMS7003;57634;51.136;17.024;2023-02-02T09:45:05;0;0;0
70243;PMS7003;57634;51.136;17.024;2023-02-02T09:48:29;0;0;0
70243;PMS7003;57634;51.136;17.024;2023-02-02T09:51:37;0;0;0
70243;PMS7003;57634;51.136;17.024;2023-02-02T09:58:27;0;0;0
70243;PMS7003;57634;51.136;17.024;2023-02-02T10:01:35;0;0;0
70243;PMS7003;57634;51.136;17.024;2023-02-02T10:04:44;0;0;0
70243;PMS7003;57634;51.136;17.024;2023-02-02T10:07:52;0;0;0
70243;PMS7003;57634;51.136;17.024;2023-02-02T10:11:28;0;0;0
70243;PMS7003;57634;51.136;17.024;2023-02-02T10:14:38;0;0;0
70243;PMS7003;57634;51.136;17.024;2023-02-02T10:17:47;0;0;0
70243;PMS7003;57634;51.136;17.024;2023-02-02T10:20:55;0;0;0
70243;PMS7003;57634;51.136;17.024;2023-02-02T10:24:01;0;0;0
70243;PMS7003;57634;51.136;17.024;2023-02-02T10:27:04;0;0;0
70243;PMS7003;57634;51.136;17.024;2023-02-02T10:30:49;0;0;0
70243;PMS7003;57634;51.136;17.024;2023-02-02T10:33:49;0;0;0
70243;PMS7003;57634;51.136;17.024;2023-02-02T10:47:08;0;0;0
70243;PMS7003;57634;51.136;17.024;2023-02-02T10:50:17;0;0;0
70243;PMS7003;57634;51.136;17.024;2023-02-02T10:53:19;0;0;0
70243;PMS7003;57634;51.136;17.024;2023-02-02T10:59:37;0;0;0
70243;PMS7003;57634;51.136;17.024;2023-02-02T11:03:13;0;0;0
70243;PMS7003;57634;51.136;17.024;2023-02-02T11:06:16;0;0;0
70243;PMS7003;57634;51.136;17.024;2023-02-02T11:09:30;0;0;0
70243;PMS7003;57634;51.136;17.024;2023-02-02T11:12:39;0;0;0
70243;PMS7003;57634;51.136;17.024;2023-02-02T11:15:46;0;0;0
70243;PMS7003;57634;51.136;17.024;2023-02-02T11:18:47;0;0;0
70243;PMS7003;57634;51.136;17.024;2023-02-02T11:21:49;0;0;0
70243;PMS7003;57634;51.136;17.024;2023-02-02T11:25:25;0;0;0
70243;PMS7003;57634;51.136;17.024;2023-02-02T11:28:33;0;0;0
70243;PMS7003;57634;51.136;17.024;2023-02-02T11:31:36;0;0;0
70243;PMS7003;57634;51.136;17.024;2023-02-02T11:34:38;0;0;0
70243;PMS7003;57634;51.136;17.024;2023-02-02T11:40:57;0;0;0
70243;PMS7003;57634;51.136;17.024;2023-02-02T11:44:03;0;0;0
70243;PMS7003;57634;51.136;17.024;2023-02-02T11:47:34;0;0;0
70243;PMS7003;57634;51.136;17.024;2023-02-02T11:50:35;0;0;0
70243;PMS7003;57634;51.136;17.024;2023-02-02T11:53:39;0;0;0
70243;PMS7003;57634;51.136;17.024;2023-02-02T11:56:50;0;0;0
70243;PMS7003;57634;51.136;17.024;2023-02-02T12:03:19;0;0;0
70243;PMS7003;57634;51.136;17.024;2023-02-02T12:06:46;0;0;0
70243;PMS7003;57634;51.136;17.024;2023-02-02T12:09:47;0;0;0
70243;PMS7003;57634;51.136;17.024;2023-02-02T12:12:54;0;0;0
70243;PMS7003;57634;51.136;17.024;2023-02-02T12:26:51;0;0;0
70243;PMS7003;57634;51.136;17.024;2023-02-02T12:29:26;0;0;0
70243;PMS7003;57634;51.136;17.024;2023-02-02T12:32:42;0;0;0
70243;PMS7003;57634;51.136;17.024;2023-02-02T12:35:57;0;0;0
70243;PMS7003;57634;51.136;17.024;2023-02-02T12:39:32;0;0;0
70243;PMS7003;57634;51.136;17.024;2023-02-02T12:46:03;0;0;0
70243;PMS7003;57634;51.136;17.024;2023-02-02T13:02:59;0;0;0
70243;PMS7003;57634;51.136;17.024;2023-02-02T13:06:19;0;0;0
70243;PMS7003;57634;51.136;17.024;2023-02-02T13:12:44;0;0;0
70243;PMS7003;57634;51.136;17.024;2023-02-02T13:15:53;0;0;0
70243;PMS7003;57634;51.136;17.024;2023-02-02T13:19:00;0;0;0
70243;PMS7003;57634;51.136;17.024;2023-02-02T13:22:36;0;0;0
70243;PMS7003;57634;51.136;17.024;2023-02-02T13:25:49;0;0;0
70243;PMS7003;57634;51.136;17.024;2023-02-02T13:29:00;0;0;0
70243;PMS7003;57634;51.136;17.024;2023-02-02T13:35:52;0;0;0
70243;PMS7003;57634;51.136;17.024;2023-02-02T13:38:57;0;0;0
70243;PMS7003;57634;51.136;17.024;2023-02-02T13:42:01;0;0;0
70243;PMS7003;57634;51.136;17.024;2023-02-02T13:52:13;0;0;0
70243;PMS7003;57634;51.136;17.024;2023-02-02T14:01:47;0;0;0
70243;PMS7003;57634;51.136;17.024;2023-02-02T14:04:52;0;0;0
70243;PMS7003;57634;51.136;17.024;2023-02-02T14:08:22;0;0;0
70243;PMS7003;57634;51.136;17.024;2023-02-02T14:11:36;0;0;0
70243;PMS7003;57634;51.136;17.024;2023-02-02T14:14:36;0;0;0
70243;PMS7003;57634;51.136;17.024;2023-02-02T14:20:50;0;0;0
70243;PMS7003;57634;51.136;17.024;2023-02-02T14:23:52;0;0;0
70243;PMS7003;57634;51.136;17.024;2023-02-02T14:26:58;0;0;0
70243;PMS7003;57634;51.136;17.024;2023-02-02T14:30:02;0;0;0
70243;PMS7003;57634;51.136;17.024;2023-02-02T14:33:39;0;0;0
70243;PMS7003;57634;51.136;17.024;2023-02-02T14:36:49;0;0;0
70243;PMS7003;57634;51.136;17.024;2023-02-02T14:47:03;0;0;0
70243;PMS7003;57634;51.136;17.024;2023-02-02T14:50:22;0;0;0
70243;PMS7003;57634;51.136;17.024;2023-02-02T14:53:31;0;0;0
70243;PMS7003;57634;51.136;17.024;2023-02-02T14:56:43;0;0;0
70243;PMS7003;57634;51.136;17.024;2023-02-02T14:59:49;0;0;0
70243;PMS7003;57634;51.136;17.024;2023-02-02T15:06:38;0;0;0
70243;PMS7003;57634;51.136;17.024;2023-02-02T15:09:42;0;0;0
70243;PMS7003;57634;51.136;17.024;2023-02-02T15:12:43;0;0;0
70243;PMS7003;57634;51.136;17.024;2023-02-02T15:15:47;1;0;0
70243;PMS7003;57634;51.136;17.024;2023-02-02T15:22:34;0;0;0
70243;PMS7003;57634;51.136;17.024;2023-02-02T15:32:08;0;0;0
70243;PMS7003;57634;51.136;17.024;2023-02-02T15:35:20;0;0;0
70243;PMS7003;57634;51.136;17.024;2023-02-02T15:38:52;0;0;0
70243;PMS7003;57634;51.136;17.024;2023-02-02T15:41:57;0;0;0
70243;PMS7003;57634;51.136;17.024;2023-02-02T15:48:28;0;0;0
70243;PMS7003;57634;51.136;17.024;2023-02-02T15:51:31;0;0;0
70243;PMS7003;57634;51.136;17.024;2023-02-02T15:54:34;0;0;0
70243;PMS7003;57634;51.136;17.024;2023-02-02T15:58:19;0;0;0
70243;PMS7003;57634;51.136;17.024;2023-02-02T16:01:17;0;0;0
70243;PMS7003;57634;51.136;17.024;2023-02-02T16:04:22;0;0;0
70243;PMS7003;57634;51.136;17.024;2023-02-02T16:07:29;0;0;0
70243;PMS7003;57634;51.136;17.024;2023-02-02T16:10:33;0;0;0
70243;PMS7003;57634;51.136;17.024;2023-02-02T16:14:21;0;0;0
70243;PMS7003;57634;51.136;17.024;2023-02-02T16:20:35;0;0;0
70243;PMS7003;57634;51.136;17.024;2023-02-02T16:23:37;0;0;0
70243;PMS7003;57634;51.136;17.024;2023-02-02T16:26:39;0;0;0
70243;PMS7003;57634;51.136;17.024;2023-02-02T16:29:41;0;0;0
70243;PMS7003;57634;51.136;17.024;2023-02-02T16:32:43;0;0;0
70243;PMS7003;57634;51.136;17.024;2023-02-02T16:35:44;0;0;0
70243;PMS7003;57634;51.136;17.024;2023-02-02T16:38:45;0;0;0
70243;PMS7003;57634;51.136;17.024;2023-02-02T16:41:48;0;0;0
70243;PMS7003;57634;51.136;17.024;2023-02-02T16:48:38;0;0;0
70243;PMS7003;57634;51.136;17.024;2023-02-02T16:51:45;0;0;0
70243;PMS7003;57634;51.136;17.024;2023-02-02T16:54:54;0;0;0
70243;PMS7003;57634;51.136;17.024;2023-02-02T16:57:57;0;0;0
70243;PMS7003;57634;51.136;17.024;2023-02-02T17:01:01;0;0;0
70243;PMS7003;57634;51.136;17.024;2023-02-02T17:04:33;0;0;0
70243;PMS7003;57634;51.136;17.024;2023-02-02T17:07:35;0;0;0
70243;PMS7003;57634;51.136;17.024;2023-02-02T17:10:39;1;0;0
70243;PMS7003;57634;51.136;17.024;2023-02-02T17:13:43;0;0;0
70243;PMS7003;57634;51.136;17.024;2023-02-02T17:16:45;0;0;0
70243;PMS7003;57634;51.136;17.024;2023-02-02T17:19:46;0;0;0
70243;PMS7003;57634;51.136;17.024;2023-02-02T17:23:05;0;0;0
70243;PMS7003;57634;51.136;17.024;2023-02-02T17:26:03;0;0;0
70243;PMS7003;57634;51.136;17.024;2023-02-02T17:29:08;0;0;0
70243;PMS7003;57634;51.136;17.024;2023-02-02T17:32:39;0;0;0
70243;PMS7003;57634;51.136;17.024;2023-02-02T17:35:41;0;0;0
70243;PMS7003;57634;51.136;17.024;2023-02-02T17:38:43;0;0;0
70243;PMS7003;57634;51.136;17.024;2023-02-02T17:41:45;0;0;0
70243;PMS7003;57634;51.136;17.024;2023-02-02T17:44:49;0;0;0
70243;PMS7003;57634;51.136;17.024;2023-02-02T17:47:50;0;0;0
70243;PMS7003;57634;51.136;17.024;2023-02-02T17:50:52;0;0;0
70243;PMS7003;57634;51.136;17.024;2023-02-02T17:53:53;0;0;0
70243;PMS7003;57634;51.136;17.024;2023-02-02T17:56:59;0;0;0
70243;PMS7003;57634;51.136;17.024;2023-02-02T18:00:05;0;0;0
70243;PMS7003;57634;51.136;17.024;2023-02-02T18:06:44;0;0;0
70243;PMS7003;57634;51.136;17.024;2023-02-02T18:09:45;0;0;0
70243;PMS7003;57634;51.136;17.024;2023-02-02T18:12:46;0;0;0
70243;PMS7003;57634;51.136;17.024;2023-02-02T18:15:48;0;0;0
70243;PMS7003;57634;51.136;17.024;2023-02-02T18:18:50;0;0;0
70243;PMS7003;57634;51.136;17.024;2023-02-02T18:21:53;0;0;0
70243;PMS7003;57634;51.136;17.024;2023-02-02T18:24:55;0;0;0
70243;PMS7003;57634;51.136;17.024;2023-02-02T18:27:59;0;0;0
70243;PMS7003;57634;51.136;17.024;2023-02-02T18:31:05;0;0;0
70243;PMS7003;57634;51.136;17.024;2023-02-02T18:34:07;0;0;0
70243;PMS7003;57634;51.136;17.024;2023-02-02T18:37:08;0;0;0
70243;PMS7003;57634;51.136;17.024;2023-02-02T18:40:10;1;1;0
70243;PMS7003;57634;51.136;17.024;2023-02-02T18:43:39;0;0;0
70243;PMS7003;57634;51.136;17.024;2023-02-02T18:46:41;0;0;0
70243;PMS7003;57634;51.136;17.024;2023-02-02T18:49:42;0;0;0
70243;PMS7003;57634;51.136;17.024;2023-02-02T18:52:43;0;0;0
70243;PMS7003;57634;51.136;17.024;2023-02-02T18:55:44;0;0;0
70243;PMS7003;57634;51.136;17.024;2023-02-02T18:58:45;0;0;0
70243;PMS7003;57634;51.136;17.024;2023-02-02T19:01:47;0;0;0
70243;PMS7003;57634;51.136;17.024;2023-02-02T19:04:48;0;0;0
70243;PMS7003;57634;51.136;17.024;2023-02-02T19:08:02;0;0;0
70243;PMS7003;57634;51.136;17.024;2023-02-02T19:11:10;0;0;0
70243;PMS7003;57634;51.136;17.024;2023-02-02T19:14:42;0;0;0
70243;PMS7003;57634;51.136;17.024;2023-02-02T19:17:45;0;0;0
70243;PMS7003;57634;51.136;17.024;2023-02-02T19:20:48;0;0;0
70243;PMS7003;57634;51.136;17.024;2023-02-02T19:23:50;0;0;0
70243;PMS7003;57634;51.136;17.024;2023-02-02T19:26:51;0;0;0
70243;PMS7003;57634;51.136;17.024;2023-02-02T19:29:54;0;0;0
70243;PMS7003;57634;51.136;17.024;2023-02-02T19:33:01;0;0;0
70243;PMS7003;57634;51.136;17.024;2023-02-02T19:36:02;0;0;0
70243;PMS7003;57634;51.136;17.024;2023-02-02T19:42:46;0;0;0
70243;PMS7003;57634;51.136;17.024;2023-02-02T19:45:56;0;0;0
70243;PMS7003;57634;51.136;17.024;2023-02-02T19:49:44;0;0;0
70243;PMS7003;57634;51.136;17.024;2023-02-02T19:55:27;0;0;0
70243;PMS7003;57634;51.136;17.024;2023-02-02T19:58:59;0;0;0
70243;PMS7003;57634;51.136;17.024;2023-02-02T20:05:16;0;0;0
70243;PMS7003;57634;51.136;17.024;2023-02-02T20:11:35;0;0;0
70243;PMS7003;57634;51.136;17.024;2023-02-02T20:14:42;0;0;0
70243;PMS7003;57634;51.136;17.024;2023-02-02T20:24:37;0;0;0
70243;PMS7003;57634;51.136;17.024;2023-02-02T20:27:44;0;0;0
70243;PMS7003;57634;51.136;17.024;2023-02-02T20:30:45;2;1;0
70243;PMS7003;57634;51.136;17.024;2023-02-02T20:33:48;0;0;0
70243;PMS7003;57634;51.136;17.024;2023-02-02T20:36:52;3;3;1
70243;PMS7003;57634;51.136;17.024;2023-02-02T20:40:26;6;5;4
70243;PMS7003;57634;51.136;17.024;2023-02-02T20:43:29;6;5;4
70243;PMS7003;57634;51.136;17.024;2023-02-02T20:46:31;0;0;0
70243;PMS7003;57634;51.136;17.024;2023-02-02T20:49:33;2;2;1
70243;PMS7003;57634;51.136;17.024;2023-02-02T20:52:36;2;1;0
70243;PMS7003;57634;51.136;17.024;2023-02-02T20:55:37;3;2;1
70243;PMS7003;57634;51.136;17.024;2023-02-02T20:58:39;1;1;0
70243;PMS7003;57634;51.136;17.024;2023-02-02T21:01:40;1;0;0
70243;PMS7003;57634;51.136;17.024;2023-02-02T21:04:41;1;1;0
70243;PMS7003;57634;51.136;17.024;2023-02-02T21:07:46;2;2;1
70243;PMS7003;57634;51.136;17.024;2023-02-02T21:10:53;3;1;0
70243;PMS7003;57634;51.136;17.024;2023-02-02T21:14:23;5;4;3
70243;PMS7003;57634;51.136;17.024;2023-02-02T21:17:25;5;4;2
70243;PMS7003;57634;51.136;17.024;2023-02-02T21:20:27;5;5;3
70243;PMS7003;57634;51.136;17.024;2023-02-02T21:23:28;1;1;0
70243;PMS7003;57634;51.136;17.024;2023-02-02T21:26:29;3;1;0
70243;PMS7003;57634;51.136;17.024;2023-02-02T21:29:31;1;1;0
70243;PMS7003;57634;51.136;17.024;2023-02-02T21:32:33;1;0;0
70243;PMS7003;57634;51.136;17.024;2023-02-02T21:35:34;1;0;0
70243;PMS7003;57634;51.136;17.024;2023-02-02T21:38:35;1;1;0
70243;PMS7003;57634;51.136;17.024;2023-02-02T21:41:37;2;2;0
70243;PMS7003;57634;51.136;17.024;2023-02-02T21:44:39;2;2;0
70243;PMS7003;57634;51.136;17.024;2023-02-02T21:51:27;6;6;4
70243;PMS7003;57634;51.136;17.024;2023-02-02T21:54:34;3;3;2
70243;PMS7003;57634;51.136;17.024;2023-02-02T21:57:37;1;1;0
70243;PMS7003;57634;51.136;17.024;2023-02-02T22:00:38;3;2;0
70243;PMS7003;57634;51.136;17.024;2023-02-02T22:03:40;1;0;0
70243;PMS7003;57634;51.136;17.024;2023-02-02T22:06:53;0;0;0
70243;PMS7003;57634;51.136;17.024;2023-02-02T22:10:02;2;2;2
70243;PMS7003;57634;51.136;17.024;2023-02-02T22:13:40;3;3;1
70243;PMS7003;57634;51.136;17.024;2023-02-02T22:16:43;3;2;1
70243;PMS7003;57634;51.136;17.024;2023-02-02T22:19:50;2;2;0
70243;PMS7003;57634;51.136;17.024;2023-02-02T22:22:56;3;3;2
70243;PMS7003;57634;51.136;17.024;2023-02-02T22:25:57;3;2;0
70243;PMS7003;57634;51.136;17.024;2023-02-02T22:28:58;3;3;1
70243;PMS7003;57634;51.136;17.024;2023-02-02T22:32:02;2;2;1
70243;PMS7003;57634;51.136;17.024;2023-02-02T22:35:03;3;3;1
70243;PMS7003;57634;51.136;17.024;2023-02-02T22:38:04;4;3;1
70243;PMS7003;57634;51.136;17.024;2023-02-02T22:41:06;3;2;1
70243;PMS7003;57634;51.136;17.024;2023-02-02T22:44:09;2;2;1
70243;PMS7003;57634;51.136;17.024;2023-02-02T22:47:38;4;3;2
70243;PMS7003;57634;51.136;17.024;2023-02-02T22:50:39;4;3;3
70243;PMS7003;57634;51.136;17.024;2023-02-02T22:53:41;6;3;2
70243;PMS7003;57634;51.136;17.024;2023-02-02T22:56:42;4;2;2
70243;PMS7003;57634;51.136;17.024;2023-02-02T22:59:43;3;3;1
70243;PMS7003;57634;51.136;17.024;2023-02-02T23:02:47;4;4;3
70243;PMS7003;57634;51.136;17.024;2023-02-02T23:05:49;8;7;4
70243;PMS7003;57634;51.136;17.024;2023-02-02T23:08:51;12;11;7
70243;PMS7003;57634;51.136;17.024;2023-02-02T23:11:53;21;15;10
70243;PMS7003;57634;51.136;17.024;2023-02-02T23:14:54;15;11;6
70243;PMS7003;57634;51.136;17.024;2023-02-02T23:17:56;14;12;7
70243;PMS7003;57634;51.136;17.024;2023-02-02T23:20:57;15;14;9
70243;PMS7003;57634;51.136;17.024;2023-02-02T23:23:58;19;15;8
70243;PMS7003;57634;51.136;17.024;2023-02-02T23:26:59;16;14;8
70243;PMS7003;57634;51.136;17.024;2023-02-02T23:30:29;22;20;12